createdAt,value
2023-02-16T00:01:19.234Z,67.43
2023-02-16T00:03:48.487Z,71.90
2023-02-16T00:06:17.531Z,73.60
2023-02-16T00:08:47.394Z,68.50
2023-02-16T00:11:40.989Z,66.13
2023-02-16T00:14:12.413Z,70.50
2023-02-16T00:16:43.226Z,73.67
2023-02-16T00:19:19.381Z,71.10
2023-02-16T00:21:51.458Z,73.97
2023-02-16T00:24:20.380Z,70.17
2023-02-16T00:26:49.568Z,75.07
2023-02-16T00:29:22.426Z,75.80
2023-02-16T00:31:51.727Z,70.70
2023-02-16T00:34:35.647Z,71.63
2023-02-16T00:37:06.587Z,73.30
2023-02-16T00:39:35.526Z,74.67
2023-02-16T00:42:07.555Z,77.17
2023-02-16T00:44:40.773Z,74.07
2023-02-16T00:47:19.182Z,70.10
2023-02-16T00:49:47.732Z,74.07
2023-02-16T00:52:37.995Z,68.00
2023-02-16T00:55:09.781Z,74.30
2023-02-16T00:57:45.914Z,72.93
2023-02-16T01:00:20.563Z,73.07
2023-02-16T01:02:54.287Z,74.70
2023-02-16T01:05:23.610Z,69.73
2023-02-16T01:08:10.519Z,73.57
2023-02-16T01:10:58.223Z,72.53
2023-02-16T01:13:29.424Z,70.47
2023-02-16T01:15:59.662Z,68.87
2023-02-16T01:18:31.455Z,70.50
2023-02-16T01:21:00.627Z,66.40
2023-02-16T01:23:29.523Z,69.47
2023-02-16T01:25:58.346Z,72.40
2023-02-16T01:28:27.964Z,73.33
2023-02-16T01:30:56.614Z,77.33
2023-02-16T01:33:26.430Z,77.43
2023-02-16T01:35:57.903Z,70.80
2023-02-16T01:38:30.435Z,72.63
2023-02-16T01:41:22.462Z,73.73
2023-02-16T01:43:58.370Z,68.40
2023-02-16T01:46:34.644Z,73.20
2023-02-16T01:49:06.124Z,70.40
2023-02-16T01:51:38.597Z,74.57
2023-02-16T01:54:13.989Z,67.17
2023-02-16T01:56:47.583Z,71.73
2023-02-16T01:59:27.423Z,71.27
2023-02-16T02:01:59.589Z,64.97
2023-02-16T02:04:53.774Z,72.50
2023-02-16T02:07:29.617Z,68.27
2023-02-16T02:10:04.302Z,66.10
2023-02-16T02:12:42.394Z,70.43
2023-02-16T02:15:12.519Z,69.33
2023-02-16T02:17:40.656Z,69.57
2023-02-16T02:20:17.312Z,66.60
2023-02-16T02:23:34.235Z,71.40
2023-02-16T02:26:39.699Z,68.63
2023-02-16T02:29:38.608Z,72.73
2023-02-16T02:32:14.555Z,73.70
2023-02-16T02:34:55.818Z,67.30
2023-02-16T02:37:31.436Z,69.00
2023-02-16T02:40:07.595Z,68.13
2023-02-16T02:42:47.468Z,65.37
2023-02-16T02:45:21.859Z,67.67
2023-02-16T02:47:51.585Z,72.63
2023-02-16T02:50:42.248Z,67.70
2023-02-16T02:53:16.458Z,69.73
2023-02-16T02:56:09.488Z,68.10
2023-02-16T02:59:06.424Z,67.53
2023-02-16T03:01:42.291Z,67.17
2023-02-16T03:04:13.309Z,73.10
2023-02-16T03:06:46.590Z,68.00
2023-02-16T03:09:18.484Z,74.00
2023-02-16T03:12:06.255Z,73.90
2023-02-16T03:14:37.980Z,70.70
2023-02-16T03:17:33.162Z,72.33
2023-02-16T03:20:22.226Z,72.33
2023-02-16T03:23:08.559Z,72.73
2023-02-16T03:25:58.144Z,72.23
2023-02-16T03:28:50.473Z,65.83
2023-02-16T03:31:22.117Z,70.77
2023-02-16T03:33:58.516Z,71.13
2023-02-16T03:36:31.614Z,69.60
2023-02-16T03:39:01.431Z,67.90
2023-02-16T03:41:34.642Z,69.37
2023-02-16T03:44:02.792Z,71.00
2023-02-16T03:46:36.697Z,70.23
2023-02-16T03:49:06.926Z,65.10
2023-02-16T03:51:35.883Z,67.87
2023-02-16T03:54:04.253Z,72.57
2023-02-16T03:56:34.622Z,72.67
2023-02-16T03:59:04.352Z,74.27
2023-02-16T04:01:32.815Z,71.47
2023-02-16T04:04:01.955Z,71.63
2023-02-16T04:06:31.635Z,73.20
2023-02-16T04:08:59.860Z,72.63
2023-02-16T04:11:48.854Z,71.63
2023-02-16T04:14:18.036Z,70.97
2023-02-16T04:16:46.990Z,73.13
2023-02-16T04:19:15.451Z,72.27
2023-02-16T04:21:47.568Z,73.00
2023-02-16T04:24:15.752Z,80.43
2023-02-16T04:26:49.541Z,71.53
2023-02-16T04:29:17.675Z,73.83
2023-02-16T04:31:46.790Z,77.67
2023-02-16T04:34:16.385Z,71.73
2023-02-16T04:36:46.012Z,71.57
2023-02-16T04:39:14.150Z,73.77
2023-02-16T04:41:43.683Z,74.97
2023-02-16T04:44:11.869Z,68.40
2023-02-16T04:46:43.686Z,69.63
2023-02-16T04:49:11.855Z,70.23
2023-02-16T04:51:43.722Z,71.40
2023-02-16T04:54:13.491Z,67.90
2023-02-16T04:56:41.786Z,69.57
2023-02-16T04:59:12.309Z,68.87
2023-02-16T05:01:40.681Z,67.53
2023-02-16T05:04:09.452Z,68.23
2023-02-16T05:06:40.338Z,72.43
2023-02-16T05:09:08.841Z,69.83
2023-02-16T05:11:57.051Z,74.87
2023-02-16T05:14:43.367Z,70.97
2023-02-16T05:17:13.646Z,72.17
2023-02-16T05:19:42.534Z,73.17
2023-02-16T05:22:11.638Z,75.17
2023-02-16T05:24:42.600Z,78.07
2023-02-16T05:27:15.630Z,73.00
2023-02-16T05:29:43.842Z,77.47
2023-02-16T05:32:12.058Z,76.60
2023-02-16T05:34:40.283Z,71.90
2023-02-16T05:37:11.516Z,75.33
2023-02-16T05:39:40.480Z,80.40
2023-02-16T05:42:08.804Z,76.70
2023-02-16T05:44:38.826Z,72.37
2023-02-16T05:47:07.678Z,76.43
2023-02-16T05:49:35.814Z,78.27
2023-02-16T05:52:04.089Z,75.77
2023-02-16T05:54:32.378Z,78.00
2023-02-16T05:57:00.516Z,75.93
2023-02-16T05:59:28.892Z,79.33
2023-02-16T06:01:58.645Z,83.67
2023-02-16T06:04:27.485Z,71.87
2023-02-16T06:06:56.680Z,75.73
2023-02-16T06:09:49.692Z,71.87
2023-02-16T06:12:18.672Z,77.77
2023-02-16T06:14:46.788Z,79.27
2023-02-16T06:17:17.666Z,67.83
2023-02-16T06:19:46.506Z,79.00
2023-02-16T06:22:17.655Z,78.13
2023-02-16T06:24:45.901Z,80.07
2023-02-16T06:27:14.672Z,72.27
2023-02-16T06:29:43.336Z,93.43
2023-02-16T06:32:11.825Z,83.43
2023-02-16T06:34:41.365Z,68.93
2023-02-16T06:37:10.435Z,73.43
2023-02-16T06:39:39.662Z,76.70
2023-02-16T06:42:08.721Z,79.17
2023-02-16T06:44:37.349Z,72.60
2023-02-16T06:47:05.597Z,74.30
2023-02-16T06:49:33.876Z,80.27
2023-02-16T06:52:03.418Z,67.20
2023-02-16T06:54:33.509Z,76.57
2023-02-16T06:57:01.730Z,71.30
2023-02-16T06:59:33.093Z,72.83
2023-02-16T07:02:01.796Z,72.43
2023-02-16T07:04:30.180Z,71.33
2023-02-16T07:07:01.678Z,75.10
2023-02-16T07:09:31.540Z,75.70
2023-02-16T07:12:01.030Z,77.20
2023-02-16T07:14:29.172Z,69.10
2023-02-16T07:16:59.245Z,80.03
2023-02-16T07:19:32.529Z,69.70
2023-02-16T07:22:03.359Z,69.37
2023-02-16T07:24:32.916Z,68.33
2023-02-16T07:27:01.179Z,69.97
2023-02-16T07:29:31.052Z,73.93
2023-02-16T07:31:59.829Z,72.07
2023-02-16T07:34:28.037Z,68.40
2023-02-16T07:36:57.666Z,73.60
2023-02-16T07:39:26.331Z,69.20
2023-02-16T07:41:56.896Z,75.90
2023-02-16T07:44:28.197Z,71.73
2023-02-16T07:46:59.365Z,66.57
2023-02-16T07:49:27.608Z,72.03
2023-02-16T07:51:55.921Z,69.40
2023-02-16T07:54:24.051Z,72.50
2023-02-16T07:56:57.532Z,71.97
2023-02-16T07:59:25.728Z,70.93
2023-02-16T08:01:54.942Z,71.13
2023-02-16T08:04:23.171Z,70.53
2023-02-16T08:06:51.423Z,69.57
2023-02-16T08:09:19.719Z,70.27
2023-02-16T08:11:48.680Z,69.23
2023-02-16T08:14:18.192Z,73.73
2023-02-16T08:16:46.732Z,73.97
2023-02-16T08:19:14.880Z,70.40
2023-02-16T08:21:47.414Z,71.43
2023-02-16T08:24:15.590Z,75.50
2023-02-16T08:26:49.889Z,67.70
2023-02-16T08:29:20.604Z,70.67
2023-02-16T08:31:50.245Z,66.67
2023-02-16T08:34:22.158Z,78.13
2023-02-16T08:36:56.296Z,71.23
2023-02-16T08:39:26.562Z,82.30
2023-02-16T08:41:55.712Z,74.77
2023-02-16T08:44:26.596Z,69.37
2023-02-16T08:46:58.817Z,70.60
2023-02-16T08:49:27.643Z,75.13
2023-02-16T08:52:01.635Z,72.60
2023-02-16T08:54:33.522Z,74.67
2023-02-16T08:57:03.026Z,73.70
2023-02-16T08:59:34.370Z,75.33
2023-02-16T09:02:03.745Z,73.63
2023-02-16T09:04:32.534Z,76.50
2023-02-16T09:07:02.042Z,74.23
2023-02-16T09:09:34.436Z,70.10
2023-02-16T09:12:03.289Z,68.07
2023-02-16T09:14:33.103Z,73.47
2023-02-16T09:17:03.073Z,67.10
2023-02-16T09:22:23.555Z,68.83
2023-02-16T09:24:52.964Z,60.73
2023-02-16T09:27:21.720Z,71.93
2023-02-16T09:29:51.549Z,62.37
2023-02-16T09:32:20.746Z,65.17
2023-02-16T09:34:50.569Z,68.10
2023-02-16T09:37:19.719Z,64.13
2023-02-16T09:39:48.241Z,62.20
2023-02-16T09:42:26.112Z,67.47
2023-02-16T09:45:06.173Z,64.90
2023-02-16T09:47:38.953Z,63.40
2023-02-16T09:50:14.707Z,61.83
2023-02-16T09:52:47.564Z,64.03
2023-02-16T09:55:20.643Z,60.37
2023-02-16T09:57:57.907Z,65.43
2023-02-16T10:00:43.410Z,65.57
2023-02-16T10:03:30.253Z,65.63
2023-02-16T10:06:19.568Z,59.23
2023-02-16T10:08:53.207Z,61.03
2023-02-16T10:11:42.032Z,63.00
2023-02-16T10:14:23.976Z,60.13
2023-02-16T10:16:59.784Z,60.33
2023-02-16T10:19:32.153Z,63.37
2023-02-16T10:22:04.851Z,63.07
2023-02-16T10:24:40.868Z,57.20
2023-02-16T10:27:15.768Z,61.70
2023-02-16T10:29:44.134Z,62.70
2023-02-16T10:32:26.169Z,62.67
2023-02-16T10:35:10.899Z,62.60
2023-02-16T10:37:53.079Z,61.33
2023-02-16T10:40:31.770Z,60.73
2023-02-16T10:43:12.068Z,61.63
2023-02-16T10:45:49.625Z,55.73
2023-02-16T10:48:24.579Z,58.53
2023-02-16T10:50:59.787Z,58.40
2023-02-16T10:53:39.574Z,60.93
2023-02-16T10:56:37.737Z,63.37
2023-02-16T10:59:09.609Z,59.30
2023-02-16T11:01:40.083Z,58.73
2023-02-16T11:04:10.658Z,57.50
2023-02-16T11:06:41.997Z,55.07
2023-02-16T11:09:16.512Z,60.97
2023-02-16T11:11:44.903Z,59.23
2023-02-16T11:14:24.610Z,55.93
2023-02-16T11:17:05.809Z,57.23
2023-02-16T11:19:39.698Z,56.00
2023-02-16T11:22:10.603Z,57.13
2023-02-16T11:24:39.777Z,60.40
2023-02-16T11:27:19.785Z,56.77
2023-02-16T11:29:48.789Z,59.03
2023-02-16T11:32:21.633Z,57.43
2023-02-16T11:34:52.560Z,58.47
2023-02-16T11:37:29.539Z,55.67
2023-02-16T11:39:59.786Z,55.83
2023-02-16T11:42:36.174Z,58.23
2023-02-16T11:45:07.094Z,52.90
2023-02-16T11:47:37.633Z,54.33
2023-02-16T11:50:20.954Z,51.03
2023-02-16T11:52:50.883Z,52.73
2023-02-16T11:55:26.953Z,54.03
2023-02-16T11:57:57.071Z,53.17
2023-02-16T12:00:28.090Z,55.67
2023-02-16T12:03:16.765Z,50.00
2023-02-16T12:06:05.432Z,55.23
2023-02-16T12:08:42.112Z,50.23
2023-02-16T12:11:38.836Z,49.13
2023-02-16T12:14:29.261Z,53.40
2023-02-16T12:17:08.964Z,49.37
2023-02-16T12:19:42.798Z,54.47
2023-02-16T12:22:43.707Z,52.93
2023-02-16T12:25:24.784Z,50.10
2023-02-16T12:28:05.686Z,48.67
2023-02-16T12:30:48.930Z,51.23
2023-02-16T12:33:28.331Z,50.30
2023-02-16T12:36:34.798Z,56.20
2023-02-16T12:39:18.758Z,45.03
2023-02-16T12:42:00.406Z,47.60
2023-02-16T12:44:35.672Z,43.77
2023-02-16T12:47:13.002Z,51.10
2023-02-16T12:49:51.868Z,47.47
2023-02-16T12:52:32.114Z,55.77
2023-02-16T12:55:14.649Z,49.17
2023-02-16T12:57:50.834Z,48.13
2023-02-16T13:00:27.124Z,47.90
2023-02-16T13:03:04.974Z,46.37
2023-02-16T13:05:38.497Z,47.13
2023-02-16T13:08:16.660Z,44.47
2023-02-16T13:10:56.966Z,46.70
2023-02-16T13:13:27.845Z,45.50
2023-02-16T13:16:05.063Z,46.63
2023-02-16T13:18:41.102Z,48.57
2023-02-16T13:21:15.475Z,43.73
2023-02-16T13:23:59.652Z,41.97
2023-02-16T13:26:53.852Z,43.77
2023-02-16T13:29:32.742Z,43.93
2023-02-16T13:32:17.365Z,46.53
2023-02-16T13:35:08.165Z,42.37
2023-02-16T13:37:52.661Z,44.97
2023-02-16T13:40:42.661Z,46.53
2023-02-16T13:43:27.689Z,47.43
2023-02-16T13:45:56.838Z,46.50
2023-02-16T13:48:31.753Z,50.20
2023-02-16T13:51:03.878Z,44.47
2023-02-16T13:53:38.337Z,44.63
2023-02-16T13:56:36.261Z,46.77
2023-02-16T13:59:59.450Z,46.73
2023-02-16T14:02:55.723Z,44.83
2023-02-16T14:05:39.631Z,47.70
2023-02-16T14:08:32.944Z,51.43
2023-02-16T14:11:10.218Z,50.73
2023-02-16T14:13:50.428Z,48.97
2023-02-16T14:16:37.275Z,47.53
2023-02-16T14:19:20.141Z,47.47
2023-02-16T14:21:50.880Z,47.47
2023-02-16T14:24:31.670Z,47.43
2023-02-16T14:27:01.905Z,46.57
2023-02-16T14:29:34.343Z,49.53
2023-02-16T14:32:07.884Z,50.37
2023-02-16T14:34:47.475Z,51.97
2023-02-16T14:37:39.475Z,47.57
2023-02-16T14:40:18.286Z,52.13
2023-02-16T14:42:53.679Z,49.67
2023-02-16T14:45:58.480Z,54.40
2023-02-16T14:48:44.997Z,50.73
2023-02-16T14:51:35.414Z,53.23
2023-02-16T14:54:37.645Z,56.40
2023-02-16T14:57:13.876Z,52.03
2023-02-16T14:59:49.232Z,55.87
2023-02-16T15:02:27.526Z,53.53
2023-02-16T15:04:56.236Z,54.07
2023-02-16T15:07:29.898Z,53.20
2023-02-16T15:09:59.852Z,56.43
2023-02-16T15:12:41.254Z,51.83
2023-02-16T15:15:18.843Z,52.33
2023-02-16T15:17:48.436Z,56.53
2023-02-16T15:20:27.591Z,49.83
2023-02-16T15:22:59.865Z,49.40
2023-02-16T15:25:33.811Z,52.57
2023-02-16T15:28:04.562Z,53.13
2023-02-16T15:30:35.757Z,55.10
2023-02-16T15:33:07.049Z,53.83
2023-02-16T15:35:38.883Z,52.33
2023-02-16T15:38:21.192Z,58.60
2023-02-16T15:40:57.307Z,52.90
2023-02-16T15:43:31.952Z,55.73
2023-02-16T15:46:05.688Z,55.10
2023-02-16T15:48:36.664Z,51.63
2023-02-16T15:51:14.460Z,51.53
2023-02-16T15:53:54.465Z,52.63
2023-02-16T15:56:42.245Z,53.00
2023-02-16T15:59:29.129Z,55.40
2023-02-16T16:02:00.244Z,55.93
2023-02-16T16:04:29.793Z,57.50
2023-02-16T16:07:00.092Z,52.07
2023-02-16T16:09:33.708Z,52.17
2023-02-16T16:12:05.070Z,52.40
2023-02-16T16:14:36.701Z,59.53
2023-02-16T16:17:15.621Z,55.83
2023-02-16T16:19:44.704Z,55.37
2023-02-16T16:22:34.417Z,55.50
2023-02-16T16:25:27.931Z,57.03
2023-02-16T16:27:56.733Z,55.57
2023-02-16T16:30:30.986Z,56.03
2023-02-16T16:33:04.806Z,59.57
2023-02-16T16:35:42.271Z,56.60
2023-02-16T16:38:24.726Z,63.57
2023-02-16T16:40:56.903Z,59.80
2023-02-16T16:43:29.825Z,66.80
2023-02-16T16:46:15.953Z,58.33
2023-02-16T16:48:47.739Z,57.23
2023-02-16T16:51:17.754Z,56.67
2023-02-16T16:53:57.361Z,59.60
2023-02-16T16:56:30.942Z,58.50
2023-02-16T16:59:00.463Z,57.23
2023-02-16T17:01:31.003Z,111.30
2023-02-16T17:03:59.591Z,125.40
2023-02-16T17:06:31.652Z,102.47
2023-02-16T17:08:59.879Z,82.27
2023-02-16T17:11:32.539Z,68.60
2023-02-16T17:14:08.568Z,63.37
2023-02-16T17:16:42.005Z,63.47
2023-02-16T17:19:14.271Z,61.53
2023-02-16T17:21:43.928Z,61.20
2023-02-16T17:24:12.277Z,64.10
2023-02-16T17:26:42.934Z,60.20
2023-02-16T17:29:11.151Z,60.83
2023-02-16T17:31:42.855Z,59.10
2023-02-16T17:34:11.135Z,60.97
2023-02-16T17:36:39.713Z,57.73
2023-02-16T17:39:08.463Z,61.07
2023-02-16T17:41:37.894Z,64.10
2023-02-16T17:44:10.742Z,56.90
2023-02-16T17:46:39.098Z,57.67
2023-02-16T17:49:07.760Z,59.03
2023-02-16T17:51:36.541Z,59.60
2023-02-16T17:54:06.426Z,61.53
2023-02-16T17:56:40.542Z,60.50
2023-02-16T17:59:14.746Z,57.77
2023-02-16T18:01:46.185Z,57.77
2023-02-16T18:04:14.404Z,59.10
2023-02-16T18:06:42.898Z,62.43
2023-02-16T18:09:15.889Z,62.70
2023-02-16T18:11:47.703Z,61.50
2023-02-16T18:14:17.286Z,56.40
2023-02-16T18:16:45.922Z,64.23
2023-02-16T18:19:15.954Z,59.07
2023-02-16T18:21:44.105Z,60.50
2023-02-16T18:24:14.392Z,63.23
2023-02-16T18:26:42.548Z,62.20
2023-02-16T18:29:11.018Z,63.83
2023-02-16T18:31:41.486Z,69.57
2023-02-16T18:34:10.461Z,60.20
2023-02-16T18:36:39.379Z,58.00
2023-02-16T18:39:09.883Z,62.87
2023-02-16T18:41:38.700Z,60.70
2023-02-16T18:44:07.512Z,64.93
2023-02-16T18:46:35.752Z,61.03
2023-02-16T18:49:06.366Z,58.07
2023-02-16T18:51:38.101Z,61.90
2023-02-16T18:54:06.493Z,62.83
2023-02-16T18:56:35.471Z,69.17
2023-02-16T18:59:04.229Z,62.77
2023-02-16T19:01:34.267Z,68.07
2023-02-16T19:04:07.828Z,66.40
2023-02-16T19:06:36.950Z,63.43
2023-02-16T19:09:05.838Z,64.27
2023-02-16T19:11:34.116Z,60.70
2023-02-16T19:14:02.339Z,62.33
2023-02-16T19:16:33.358Z,62.87
2023-02-16T19:19:01.559Z,69.10
2023-02-16T19:21:32.088Z,70.10
2023-02-16T19:24:00.838Z,70.23
2023-02-16T19:26:29.134Z,65.00
2023-02-16T19:28:57.290Z,65.83
2023-02-16T19:31:28.309Z,65.63
2023-02-16T19:33:57.953Z,65.40
2023-02-16T19:36:27.682Z,69.57
2023-02-16T19:38:57.416Z,67.70
2023-02-16T19:41:30.391Z,65.33
2023-02-16T19:43:58.648Z,67.40
2023-02-16T19:46:27.790Z,71.67
2023-02-16T19:48:56.649Z,67.13
2023-02-16T19:51:25.409Z,67.47
2023-02-16T19:53:53.650Z,65.20
2023-02-16T19:56:27.555Z,67.00
2023-02-16T19:58:58.970Z,70.20
2023-02-16T20:01:29.980Z,67.40
2023-02-16T20:03:59.017Z,67.00
2023-02-16T20:06:29.571Z,72.30
2023-02-16T20:08:58.135Z,67.43
2023-02-16T20:11:33.336Z,68.80
2023-02-16T20:14:01.951Z,70.97
2023-02-16T20:16:30.883Z,69.53
2023-02-16T20:19:00.394Z,68.40
2023-02-16T20:21:30.249Z,78.93
2023-02-16T20:24:04.860Z,146.73
2023-02-16T20:26:36.222Z,139.57
2023-02-16T20:29:09.291Z,98.73
2023-02-16T20:31:39.875Z,78.80
2023-02-16T20:34:08.807Z,75.97
2023-02-16T20:36:37.968Z,77.17
2023-02-16T20:39:08.623Z,77.17
2023-02-16T20:41:40.950Z,80.70
2023-02-16T20:44:10.005Z,94.90
2023-02-16T20:46:39.138Z,82.03
2023-02-16T20:49:08.828Z,75.83
2023-02-16T20:52:01.280Z,76.60
2023-02-16T20:54:29.833Z,68.43
2023-02-16T20:57:02.558Z,72.97
2023-02-16T20:59:31.976Z,75.87
2023-02-16T21:02:04.573Z,73.20
2023-02-16T21:04:36.890Z,74.97
2023-02-16T21:07:07.268Z,71.33
2023-02-16T21:09:35.421Z,74.37
2023-02-16T21:12:05.404Z,72.97
2023-02-16T21:14:33.689Z,74.33
2023-02-16T21:17:03.226Z,69.87
2023-02-16T21:19:31.694Z,73.50
2023-02-16T21:22:01.019Z,77.87
2023-02-16T21:24:29.150Z,75.27
2023-02-16T21:26:57.338Z,72.30
2023-02-16T21:29:27.835Z,75.37
2023-02-16T21:31:57.074Z,72.97
2023-02-16T21:34:25.821Z,76.90
2023-02-16T21:36:54.970Z,75.00
2023-02-16T21:39:43.868Z,80.80
2023-02-16T21:42:11.155Z,73.37
2023-02-16T21:44:43.193Z,79.07
2023-02-16T21:47:31.955Z,81.17
2023-02-16T21:50:00.290Z,85.80
2023-02-16T21:52:28.477Z,78.43
2023-02-16T21:55:16.500Z,77.00
2023-02-16T21:57:45.199Z,78.33
2023-02-16T22:00:16.946Z,80.37
2023-02-16T22:02:45.075Z,76.67
2023-02-16T22:05:14.691Z,78.47
2023-02-16T22:07:42.881Z,87.43
2023-02-16T22:10:13.287Z,82.10
2023-02-16T22:12:41.508Z,81.33
2023-02-16T22:15:10.171Z,75.93
2023-02-16T22:17:41.522Z,83.53
2023-02-16T22:20:10.566Z,76.67
2023-02-16T22:22:42.150Z,74.27
2023-02-16T22:25:13.268Z,78.77
2023-02-16T22:27:41.993Z,74.37
2023-02-16T22:30:11.049Z,73.50
2023-02-16T22:32:41.034Z,76.23
2023-02-16T22:35:09.545Z,77.20
2023-02-16T22:37:37.833Z,77.27
2023-02-16T22:40:07.991Z,84.83
2023-02-16T22:42:39.402Z,78.97
2023-02-16T22:45:09.055Z,77.77
2023-02-16T22:47:37.978Z,81.40
2023-02-16T22:50:09.081Z,81.17
2023-02-16T22:52:38.244Z,77.50
2023-02-16T22:55:07.278Z,82.27
2023-02-16T22:57:37.953Z,70.23
2023-02-16T23:00:09.075Z,74.47
2023-02-16T23:02:40.850Z,74.70
2023-02-16T23:05:13.440Z,71.53
2023-02-16T23:07:41.865Z,75.00
2023-02-16T23:10:10.574Z,70.93
2023-02-16T23:12:38.712Z,71.57
2023-02-16T23:15:09.071Z,75.20
2023-02-16T23:17:40.947Z,78.03
2023-02-16T23:20:12.209Z,71.40
2023-02-16T23:22:40.606Z,75.23
2023-02-16T23:25:28.480Z,73.47
2023-02-16T23:28:00.397Z,80.50
2023-02-16T23:30:28.822Z,77.30
2023-02-16T23:32:56.997Z,71.00
2023-02-16T23:35:28.073Z,74.83
2023-02-16T23:37:56.206Z,72.33
2023-02-16T23:40:27.392Z,68.80
2023-02-16T23:42:56.053Z,74.23
2023-02-16T23:45:24.343Z,75.30
2023-02-16T23:47:54.527Z,75.23
2023-02-16T23:50:23.124Z,76.70
2023-02-16T23:52:55.077Z,76.63
2023-02-16T23:55:23.368Z,72.43
2023-02-16T23:57:51.484Z,74.70
